Time;durP1;ratioP1;P1;durP2;ratioP2;P2;SDS_P1;SDS_P2;PMS_P1;PMS_P2;Temp;Humidity;BMP_temperature;BMP_pressure;BME280_temperature;BME280_humidity;BME280_pressure;Samples;Min_cycle;Max_cycle;Signal;HPM_P1;HPM_P2
2022/03/06 00:00:27;;;;;;;13.83;11.43;;;;;;;1.40;nan;94728.94;5052989;28;20677;-72
2022/03/06 00:02:54;;;;;;;17.47;11.33;;;;;;;1.47;nan;94728.09;5052617;28;20202;-75
2022/03/06 00:05:21;;;;;;;13.27;11.67;;;;;;;1.40;nan;94727.28;5052311;28;20679;-73
2022/03/06 00:07:48;;;;;;;13.10;11.80;;;;;;;1.33;nan;94725.63;5049517;28;20273;-74
2022/03/06 00:10:16;;;;;;;16.70;14.37;;;;;;;1.31;nan;94738.13;5050415;28;20222;-72
2022/03/06 00:12:43;;;;;;;15.03;12.10;;;;;;;1.28;nan;94733.13;5050310;28;20292;-73
2022/03/06 00:15:10;;;;;;;14.00;12.63;;;;;;;1.25;nan;94727.31;5050652;28;20256;-72
2022/03/06 00:17:37;;;;;;;15.97;12.43;;;;;;;1.27;nan;94726.47;5051741;28;20201;-73
2022/03/06 00:20:08;;;;;;;18.33;13.67;;;;;;;1.28;nan;94723.13;5052816;28;20198;-72
2022/03/06 00:22:35;;;;;;;14.80;12.47;;;;;;;1.25;nan;94725.63;5051296;28;20202;-72
2022/03/06 00:25:01;;;;;;;11.50;10.37;;;;;;;1.27;nan;94720.63;5053450;28;20202;-74
2022/03/06 00:27:30;;;;;;;13.03;11.67;;;;;;;1.20;nan;94724.84;5053941;28;20229;-73
2022/03/06 00:29:56;;;;;;;12.97;10.77;;;;;;;1.26;nan;94721.47;5052752;28;20199;-72
2022/03/06 00:32:23;;;;;;;10.70;9.63;;;;;;;1.27;nan;94716.44;5051882;28;20209;-73
2022/03/06 00:34:50;;;;;;;11.37;9.07;;;;;;;1.21;nan;94723.19;5054034;28;20206;-73
2022/03/06 00:37:17;;;;;;;17.10;10.03;;;;;;;1.27;nan;94718.13;5051852;28;20247;-72
2022/03/06 00:39:44;;;;;;;9.07;7.37;;;;;;;1.22;nan;94723.16;5051832;28;20206;-71
2022/03/06 00:42:11;;;;;;;9.57;8.67;;;;;;;1.24;nan;94723.13;5052197;28;20195;-72
2022/03/06 00:44:39;;;;;;;7.10;6.50;;;;;;;1.28;nan;94707.28;5051456;28;20445;-72
2022/03/06 00:47:07;;;;;;;8.60;7.90;;;;;;;1.18;nan;94701.50;5051946;28;20366;-73
2022/03/06 00:49:34;;;;;;;8.67;7.80;;;;;;;1.14;nan;94704.84;5052051;28;20229;-73
2022/03/06 00:52:01;;;;;;;9.33;8.43;;;;;;;1.17;nan;94704.81;5052448;28;20340;-72
2022/03/06 00:54:28;;;;;;;7.97;7.23;;;;;;;1.12;nan;94706.50;5052892;28;20609;-73
2022/03/06 00:56:55;;;;;;;8.73;7.97;;;;;;;1.18;nan;94691.47;5053088;28;20259;-73
2022/03/06 00:59:22;;;;;;;8.83;7.97;;;;;;;1.18;nan;94701.50;5053451;28;20259;-71
2022/03/06 01:01:50;;;;;;;8.87;7.97;;;;;;;1.15;nan;94695.66;5053328;28;20201;-72
2022/03/06 01:04:16;;;;;;;7.90;7.30;;;;;;;1.15;nan;94686.47;5052397;28;21440;-73
2022/03/06 01:06:43;;;;;;;10.33;9.27;;;;;;;1.12;nan;94691.50;5050635;28;21606;-73
2022/03/06 01:09:12;;;;;;;8.90;8.00;;;;;;;1.17;nan;94692.31;5052746;28;20198;-73
2022/03/06 01:11:39;;;;;;;6.43;5.93;;;;;;;1.16;nan;94693.16;5050418;28;20796;-71
2022/03/06 01:14:06;;;;;;;9.13;8.23;;;;;;;1.13;nan;94678.16;5051985;28;20560;-73
2022/03/06 01:16:33;;;;;;;9.80;8.77;;;;;;;1.14;nan;94677.31;5051744;28;20738;-71
2022/03/06 01:19:01;;;;;;;10.40;9.33;;;;;;;1.17;nan;94667.28;5052792;28;20202;-74
2022/03/06 01:21:28;;;;;;;10.23;9.20;;;;;;;1.17;nan;94679.81;5051994;28;20199;-73
2022/03/06 01:23:54;;;;;;;12.67;11.37;;;;;;;1.20;nan;94697.31;5052306;28;20267;-72
2022/03/06 01:26:21;;;;;;;10.23;9.10;;;;;;;1.17;nan;94694.81;5052583;28;20229;-73
2022/03/06 01:28:48;;;;;;;12.10;10.80;;;;;;;1.14;nan;94674.81;5052074;28;20238;-72
2022/03/06 01:31:15;;;;;;;17.87;11.90;;;;;;;1.03;nan;94681.50;5051022;28;20202;-71
2022/03/06 01:33:42;;;;;;;15.33;12.83;;;;;;;1.02;nan;94682.34;5054857;28;20709;-72
2022/03/06 01:36:10;;;;;;;10.67;9.57;;;;;;;1.11;nan;94679.81;5051031;28;20278;-73
2022/03/06 01:38:37;;;;;;;11.93;10.47;;;;;;;1.01;nan;94673.16;5053593;28;20276;-71
2022/03/06 01:41:04;;;;;;;14.13;11.27;;;;;;;0.98;nan;94678.22;5054766;28;20275;-72
2022/03/06 01:43:33;;;;;;;15.10;10.83;;;;;;;1.01;nan;94668.16;5055249;28;20202;-71
2022/03/06 01:46:10;;;;;;;17.10;11.70;;;;;;;0.98;nan;94668.19;5055620;28;20241;-71
2022/03/06 01:48:46;;;;;;;8.53;7.73;;;;;;;1.07;nan;94657.31;5055627;28;20198;-72
2022/03/06 01:51:50;;;;;;;13.57;11.63;;;;;;;0.96;nan;94644.84;5034714;28;20305;-74
2022/03/06 01:54:20;;;;;;;13.90;10.57;;;;;;;1.15;nan;94661.44;5036029;28;20234;-72
2022/03/06 01:56:47;;;;;;;12.27;10.83;;;;;;;1.18;nan;94650.59;5037451;28;20634;-73
2022/03/06 01:59:13;;;;;;;14.23;10.50;;;;;;;1.16;nan;94653.09;5035638;28;20203;-71
2022/03/06 02:01:40;;;;;;;12.63;10.87;;;;;;;1.17;nan;94651.44;5035648;28;20245;-73
2022/03/06 02:04:07;;;;;;;11.50;9.73;;;;;;;1.18;nan;94643.94;5034961;28;20199;-72
2022/03/06 02:06:35;;;;;;;12.03;10.90;;;;;;;1.27;nan;94641.34;5035133;28;20238;-73
2022/03/06 02:09:45;;;;;;;11.47;10.23;;;;;;;1.26;nan;94643.88;5035316;28;21146;-74
2022/03/06 02:12:25;;;;;;;11.67;9.90;;;;;;;1.26;nan;94647.22;5036117;28;20195;-74
2022/03/06 02:14:54;;;;;;;12.77;10.70;;;;;;;1.25;nan;94649.72;5035941;28;20194;-76
2022/03/06 02:17:37;;;;;;;12.70;11.30;;;;;;;1.24;nan;94651.38;5036250;28;20669;-73
2022/03/06 02:20:28;;;;;;;14.23;11.60;;;;;;;1.15;nan;94616.41;5036495;28;20251;-73
2022/03/06 02:23:40;;;;;;;12.80;9.37;;;;;;;1.22;nan;94663.09;5034857;28;20190;-74
2022/03/06 02:26:11;;;;;;;17.33;11.63;;;;;;;1.29;nan;94647.19;5036669;28;20518;-74
2022/03/06 02:29:15;;;;;;;12.73;11.43;;;;;;;1.28;nan;94654.72;5034830;28;20195;-74
2022/03/06 02:32:20;;;;;;;10.40;9.17;;;;;;;1.27;nan;94646.38;5035217;28;21355;-73
2022/03/06 02:35:18;;;;;;;10.30;9.33;;;;;;;1.25;nan;94653.03;5034745;28;20207;-73
2022/03/06 02:38:38;;;;;;;14.47;11.93;;;;;;;1.28;nan;94652.19;5034181;28;20195;-74
2022/03/06 02:41:45;;;;;;;9.57;8.70;;;;;;;1.32;nan;94649.69;5033976;28;20279;-74
2022/03/06 02:47:34;;;;;;;12.90;10.90;;;;;;;1.21;nan;94621.38;5033552;28;20964;-73
2022/03/06 02:50:02;;;;;;;10.10;9.07;;;;;;;1.36;nan;94666.34;5035667;28;20288;-75
2022/03/06 02:52:30;;;;;;;14.73;11.73;;;;;;;1.41;nan;94645.47;5038389;28;20288;-76
2022/03/06 02:54:56;;;;;;;11.17;10.03;;;;;;;1.38;nan;94648.00;5037651;28;20218;-74
2022/03/06 02:57:25;;;;;;;13.37;11.77;;;;;;;1.42;nan;94650.47;5040157;28;20282;-75
2022/03/06 02:59:52;;;;;;;12.23;10.73;;;;;;;1.52;nan;94651.25;5042305;28;20280;-74
2022/03/06 03:02:18;;;;;;;13.87;11.47;;;;;;;1.40;nan;94647.16;5039362;28;20297;-73
2022/03/06 03:04:45;;;;;;;10.63;9.63;;;;;;;1.45;nan;94647.13;5039017;28;22498;-74
2022/03/06 03:07:12;;;;;;;10.40;9.33;;;;;;;1.44;nan;94647.97;5038221;28;20283;-74
2022/03/06 03:09:39;;;;;;;11.17;10.07;;;;;;;1.34;nan;94642.16;5037824;28;20207;-75
2022/03/06 03:12:07;;;;;;;12.53;9.83;;;;;;;1.31;nan;94663.03;5038215;28;20203;-73
2022/03/06 03:14:35;;;;;;;10.33;9.37;;;;;;;1.28;nan;94657.22;5038244;28;20211;-75
2022/03/06 03:17:03;;;;;;;15.07;9.53;;;;;;;1.29;nan;94657.22;5037122;28;20210;-73
2022/03/06 03:19:30;;;;;;;8.73;7.83;;;;;;;1.27;nan;94661.38;5040201;28;20199;-74
2022/03/06 03:21:57;;;;;;;9.20;8.30;;;;;;;1.22;nan;94682.28;5038065;28;20564;-74
2022/03/06 03:24:26;;;;;;;9.47;8.47;;;;;;;1.15;nan;94665.63;5038750;28;20207;-73
2022/03/06 03:26:53;;;;;;;9.93;8.87;;;;;;;1.19;nan;94680.63;5039790;28;20262;-73
2022/03/06 03:29:20;;;;;;;9.37;8.50;;;;;;;1.06;nan;94668.16;5040099;28;20200;-73
2022/03/06 03:31:49;;;;;;;10.13;9.03;;;;;;;1.04;nan;94663.16;5037674;28;20198;-73
2022/03/06 03:34:16;;;;;;;7.80;7.10;;;;;;;0.96;nan;94662.38;5040013;28;20618;-74
2022/03/06 03:36:43;;;;;;;10.30;8.93;;;;;;;1.00;nan;94661.50;5039018;28;20199;-72
2022/03/06 03:39:10;;;;;;;10.33;8.73;;;;;;;1.00;nan;94661.50;5038432;28;20199;-75
2022/03/06 03:41:37;;;;;;;9.77;8.70;;;;;;;0.70;nan;94634.94;5037136;28;21677;-74
2022/03/06 03:44:05;;;;;;;10.60;9.50;;;;;;;0.86;nan;94643.22;5037468;28;21899;-75
2022/03/06 03:46:32;;;;;;;9.30;8.50;;;;;;;0.96;nan;94675.72;5038868;28;20226;-73
2022/03/06 03:49:00;;;;;;;9.30;8.40;;;;;;;0.94;nan;94661.53;5040584;28;20264;-74
2022/03/06 03:51:27;;;;;;;8.70;7.90;;;;;;;0.94;nan;94652.38;5036222;28;20746;-74
2022/03/06 03:53:54;;;;;;;9.67;8.60;;;;;;;0.90;nan;94669.88;5037762;28;20222;-73
2022/03/06 03:56:22;;;;;;;9.50;8.60;;;;;;;0.90;nan;94684.91;5036946;28;20325;-74
2022/03/06 03:58:49;;;;;;;7.17;6.57;;;;;;;0.85;nan;94667.38;5037466;28;20223;-73
2022/03/06 04:01:17;;;;;;;7.30;6.43;;;;;;;0.84;nan;94674.91;5038404;28;20289;-73
2022/03/06 04:03:44;;;;;;;11.30;9.67;;;;;;;0.87;nan;94672.38;5041032;28;20207;-72
2022/03/06 04:06:12;;;;;;;11.87;10.13;;;;;;;0.86;nan;94679.06;5038095;28;20650;-74
2022/03/06 04:08:39;;;;;;;8.20;7.50;;;;;;;0.80;nan;94666.56;5039143;28;20975;-74
2022/03/06 04:11:06;;;;;;;9.23;8.40;;;;;;;0.78;nan;94680.75;5039287;28;20206;-72
2022/03/06 04:13:33;;;;;;;8.97;6.37;;;;;;;0.80;nan;94676.56;5036550;28;20289;-74
2022/03/06 04:16:00;;;;;;;9.43;8.50;;;;;;;0.77;nan;94683.25;5039142;28;20208;-75
2022/03/06 04:18:27;;;;;;;8.30;7.57;;;;;;;0.80;nan;94678.22;5037775;28;21126;-74
2022/03/06 04:20:54;;;;;;;7.07;6.47;;;;;;;0.79;nan;94679.06;5037963;28;20600;-73
2022/03/06 04:23:22;;;;;;;7.03;6.43;;;;;;;0.75;nan;94674.91;5038015;28;20207;-74
2022/03/06 04:25:49;;;;;;;7.43;6.73;;;;;;;0.77;nan;94678.25;5035048;28;20621;-75
2022/03/06 04:28:15;;;;;;;7.67;6.97;;;;;;;0.75;nan;94674.91;5035602;28;20744;-73
2022/03/06 04:30:42;;;;;;;9.83;7.33;;;;;;;0.76;nan;94669.91;5034790;28;20202;-72
2022/03/06 04:33:09;;;;;;;8.67;7.83;;;;;;;0.72;nan;94674.94;5034755;28;20214;-74
2022/03/06 04:35:36;;;;;;;8.30;7.50;;;;;;;0.79;nan;94671.56;5036436;28;20338;-74
2022/03/06 04:38:03;;;;;;;7.27;6.57;;;;;;;0.69;nan;94673.28;5036101;28;20256;-74
2022/03/06 04:40:32;;;;;;;7.83;7.13;;;;;;;0.71;nan;94678.28;5037659;28;20202;-73
2022/03/06 04:42:58;;;;;;;7.53;6.70;;;;;;;0.65;nan;94682.44;5036759;28;20232;-75
2022/03/06 04:45:26;;;;;;;7.77;7.17;;;;;;;0.67;nan;94678.28;5034894;28;20203;-74
2022/03/06 04:47:53;;;;;;;9.10;8.20;;;;;;;0.73;nan;94676.59;5034786;28;20325;-71
2022/03/06 04:50:20;;;;;;;9.50;7.07;;;;;;;0.80;nan;94683.25;5045340;28;20241;-74
2022/03/06 04:52:47;;;;;;;8.13;7.33;;;;;;;0.68;nan;94679.94;5049467;28;20194;-72
2022/03/06 04:55:14;;;;;;;8.40;7.70;;;;;;;0.64;nan;94673.28;5049086;28;20217;-74
2022/03/06 04:57:45;;;;;;;8.13;7.27;;;;;;;0.67;nan;94683.28;5051279;28;20206;-74
2022/03/06 05:00:13;;;;;;;7.87;7.17;;;;;;;0.66;nan;94676.63;5049864;28;20244;-74
2022/03/06 05:02:40;;;;;;;7.63;6.37;;;;;;;0.60;nan;94679.13;5050882;28;20761;-75
2022/03/06 05:05:09;;;;;;;8.63;7.70;;;;;;;0.56;nan;94679.94;5050480;28;20601;-72
2022/03/06 05:07:36;;;;;;;8.03;7.33;;;;;;;0.65;nan;94674.94;5050159;28;20302;-72
2022/03/06 05:10:08;;;;;;;7.80;7.20;;;;;;;0.65;nan;94667.44;5053629;28;20647;-75
2022/03/06 05:12:35;;;;;;;6.03;5.63;;;;;;;0.63;nan;94679.13;5053536;28;20642;-73
2022/03/06 05:15:05;;;;;;;8.90;7.67;;;;;;;0.60;nan;94671.63;5053235;28;20218;-72
2022/03/06 05:17:31;;;;;;;8.70;7.90;;;;;;;0.66;nan;94679.13;5054461;28;20263;-71
2022/03/06 05:19:58;;;;;;;6.83;6.23;;;;;;;0.58;nan;94672.44;5053514;28;20202;-74
2022/03/06 05:22:25;;;;;;;6.40;5.80;;;;;;;0.58;nan;94673.28;5053689;28;20809;-75
2022/03/06 05:24:52;;;;;;;6.83;6.17;;;;;;;0.61;nan;94692.44;5054547;28;20201;-73
2022/03/06 05:27:19;;;;;;;7.00;6.40;;;;;;;0.59;nan;94684.94;5053445;28;20287;-74
2022/03/06 05:29:46;;;;;;;8.30;7.50;;;;;;;0.61;nan;94683.28;5054152;28;20677;-73
2022/03/06 05:32:14;;;;;;;7.20;6.50;;;;;;;0.60;nan;94701.63;5054072;28;20209;-71
2022/03/06 05:34:41;;;;;;;7.27;6.57;;;;;;;0.56;nan;94689.94;5054484;28;20217;-72
2022/03/06 05:37:08;;;;;;;8.13;6.90;;;;;;;0.55;nan;94700.78;5053778;28;20628;-74
2022/03/06 05:39:35;;;;;;;10.07;7.20;;;;;;;0.58;nan;94698.28;5055764;28;20214;-72
2022/03/06 05:42:02;;;;;;;7.57;6.70;;;;;;;0.65;nan;94706.63;5053296;28;20210;-72
2022/03/06 05:44:31;;;;;;;6.50;6.00;;;;;;;0.60;nan;94694.13;5054065;28;20669;-71
2022/03/06 05:46:58;;;;;;;8.30;6.43;;;;;;;0.66;nan;94688.28;5054398;28;20206;-73
2022/03/06 05:49:26;;;;;;;7.57;6.97;;;;;;;0.62;nan;94684.13;5054788;28;20231;-73
2022/03/06 05:51:53;;;;;;;7.63;6.87;;;;;;;0.61;nan;94693.28;5053615;28;20306;-73
2022/03/06 05:54:20;;;;;;;6.57;5.97;;;;;;;0.64;nan;94682.44;5052507;28;20275;-72
2022/03/06 05:56:46;;;;;;;7.80;7.00;;;;;;;0.63;nan;94686.63;5051812;28;20934;-72
2022/03/06 05:59:13;;;;;;;7.20;6.57;;;;;;;0.60;nan;94690.78;5053419;28;20210;-74
2022/03/06 06:01:40;;;;;;;6.67;5.90;;;;;;;0.67;nan;94693.28;5052440;28;21401;-73
2022/03/06 06:04:07;;;;;;;6.17;5.77;;;;;;;0.60;nan;94696.63;5052371;28;20210;-74
2022/03/06 06:06:35;;;;;;;6.43;5.93;;;;;;;0.61;nan;94702.44;5052678;28;20228;-74
2022/03/06 06:09:02;;;;;;;6.43;5.83;;;;;;;0.56;nan;94704.94;5053049;28;20287;-73
2022/03/06 06:11:29;;;;;;;6.97;6.13;;;;;;;0.59;nan;94714.94;5052534;28;20217;-73
2022/03/06 06:13:55;;;;;;;6.70;6.10;;;;;;;0.61;nan;94717.44;5053037;28;20203;-73
2022/03/06 06:16:22;;;;;;;7.40;6.80;;;;;;;0.52;nan;94708.28;5052793;28;20248;-75
2022/03/06 06:18:49;;;;;;;5.97;5.57;;;;;;;0.60;nan;94719.13;5053391;28;20267;-73
2022/03/06 06:21:21;;;;;;;6.07;5.47;;;;;;;0.65;nan;94724.97;5052532;28;20206;-72
2022/03/06 06:23:49;;;;;;;6.07;5.57;;;;;;;0.66;nan;94716.63;5053014;28;20195;-72
2022/03/06 06:26:17;;;;;;;7.50;6.73;;;;;;;0.59;nan;94711.63;5050382;28;20202;-74
2022/03/06 06:28:44;;;;;;;6.60;6.00;;;;;;;0.62;nan;94711.63;5050145;28;21004;-74
2022/03/06 06:31:11;;;;;;;6.37;5.77;;;;;;;0.62;nan;94709.13;5052516;28;20202;-75
2022/03/06 06:33:38;;;;;;;5.87;5.37;;;;;;;0.58;nan;94708.28;5052209;28;20278;-76
2022/03/06 06:36:06;;;;;;;5.33;4.93;;;;;;;0.70;nan;94712.44;5051796;28;20203;-74
2022/03/06 06:38:32;;;;;;;4.93;4.50;;;;;;;0.60;nan;94706.63;5051801;28;20665;-73
2022/03/06 06:41:01;;;;;;;5.83;5.00;;;;;;;0.62;nan;94714.13;5052017;28;20291;-74
2022/03/06 06:43:29;;;;;;;6.17;5.57;;;;;;;0.56;nan;94709.94;5050651;28;20221;-74
2022/03/06 06:45:56;;;;;;;6.33;5.73;;;;;;;0.60;nan;94716.63;5052213;28;20643;-74
2022/03/06 06:48:23;;;;;;;4.13;3.83;;;;;;;0.56;nan;94734.94;5051392;28;20234;-73
2022/03/06 06:50:49;;;;;;;6.40;4.90;;;;;;;0.58;nan;94735.78;5053370;28;20317;-73
2022/03/06 06:53:16;;;;;;;5.03;4.63;;;;;;;0.58;nan;94733.28;5054461;28;20213;-72
2022/03/06 06:55:43;;;;;;;4.00;3.57;;;;;;;0.53;nan;94714.94;5054462;28;20202;-73
2022/03/06 06:58:11;;;;;;;4.67;4.27;;;;;;;0.70;nan;94724.13;5053421;28;20195;-76
2022/03/06 07:00:38;;;;;;;5.53;5.13;;;;;;;0.64;nan;94727.47;5054766;28;20600;-73
2022/03/06 07:03:05;;;;;;;3.60;3.30;;;;;;;0.65;nan;94739.13;5053985;28;20248;-75
2022/03/06 07:05:32;;;;;;;4.00;3.63;;;;;;;0.60;nan;94721.63;5053960;28;20588;-74
2022/03/06 07:07:59;;;;;;;4.80;4.40;;;;;;;0.59;nan;94727.47;5053668;28;20237;-74
2022/03/06 07:10:26;;;;;;;4.77;4.37;;;;;;;0.63;nan;94716.63;5053070;28;20226;-72
2022/03/06 07:12:55;;;;;;;4.03;3.73;;;;;;;0.72;nan;94717.44;5053407;28;20202;-73
2022/03/06 07:15:28;;;;;;;3.63;3.43;;;;;;;0.65;nan;94742.47;5053431;28;21239;-74
2022/03/06 07:17:57;;;;;;;4.73;4.43;;;;;;;0.70;nan;94726.63;5054387;28;20224;-75
2022/03/06 07:20:23;;;;;;;6.50;4.80;;;;;;;0.77;nan;94729.09;5054062;28;20196;-73
2022/03/06 07:22:50;;;;;;;4.10;3.77;;;;;;;0.72;nan;94720.78;5054850;28;20206;-72
2022/03/06 07:25:17;;;;;;;4.40;4.10;;;;;;;0.66;nan;94726.63;5053153;28;20291;-73
2022/03/06 07:27:44;;;;;;;5.33;4.83;;;;;;;0.63;nan;94721.63;5056949;28;20218;-76
2022/03/06 07:30:12;;;;;;;4.83;4.37;;;;;;;0.67;nan;94717.44;5057726;28;20210;-74
2022/03/06 07:32:44;;;;;;;4.75;4.35;;;;;;;0.68;nan;94729.97;5053775;28;21260;-73
2022/03/06 07:35:11;;;;;;;9.17;4.17;;;;;;;0.71;nan;94735.78;5055941;28;20199;-73
2022/03/06 07:37:39;;;;;;;4.90;4.53;;;;;;;0.76;nan;94734.09;5059119;28;20266;-75
2022/03/06 07:40:07;;;;;;;4.93;4.53;;;;;;;0.74;nan;94729.13;5055862;28;20224;-74
2022/03/06 07:42:34;;;;;;;5.60;5.20;;;;;;;0.85;nan;94716.59;5055440;28;20227;-75
2022/03/06 07:45:01;;;;;;;5.00;4.60;;;;;;;0.73;nan;94717.44;5058912;28;20217;-72
2022/03/06 07:47:28;;;;;;;6.03;5.53;;;;;;;0.80;nan;94718.25;5052953;28;20745;-72
2022/03/06 07:49:57;;;;;;;5.03;4.53;;;;;;;0.83;nan;94735.75;5051283;28;20241;-76
2022/03/06 07:52:24;;;;;;;5.57;5.17;;;;;;;0.83;nan;94735.75;5052138;28;20732;-72
2022/03/06 07:54:51;;;;;;;5.30;4.80;;;;;;;0.93;nan;94744.94;5051931;28;20798;-74
2022/03/06 07:57:18;;;;;;;4.17;3.87;;;;;;;1.00;nan;94734.03;5054003;28;20198;-74
2022/03/06 07:59:45;;;;;;;5.13;4.73;;;;;;;0.90;nan;94734.91;5051404;28;20294;-75
2022/03/06 08:02:12;;;;;;;6.20;5.70;;;;;;;0.83;nan;94733.25;5052727;28;20210;-73
2022/03/06 08:04:39;;;;;;;6.37;5.80;;;;;;;0.87;nan;94730.75;5051513;28;20824;-74
2022/03/06 08:07:07;;;;;;;6.07;5.40;;;;;;;0.87;nan;94729.91;5051120;28;20202;-74
2022/03/06 08:09:34;;;;;;;5.93;5.43;;;;;;;0.96;nan;94729.91;5052732;28;20721;-73
2022/03/06 08:12:01;;;;;;;8.37;7.43;;;;;;;0.92;nan;94750.75;5052832;28;20193;-74
2022/03/06 08:14:28;;;;;;;6.43;5.83;;;;;;;0.94;nan;94746.59;5051377;28;20222;-73
2022/03/06 08:16:55;;;;;;;8.43;7.63;;;;;;;0.94;nan;94734.91;5053111;28;20305;-73
2022/03/06 08:19:23;;;;;;;7.40;6.83;;;;;;;0.88;nan;94746.59;5054910;28;20297;-74
2022/03/06 08:21:49;;;;;;;7.17;6.50;;;;;;;0.98;nan;94749.09;5056630;28;20202;-74
2022/03/06 08:24:18;;;;;;;12.07;9.67;;;;;;;0.83;nan;94749.09;5052256;28;20208;-73
2022/03/06 08:26:45;;;;;;;8.80;7.90;;;;;;;0.77;nan;94744.09;5053104;28;20772;-74
2022/03/06 08:29:12;;;;;;;8.97;7.80;;;;;;;0.77;nan;94739.09;5051352;28;20226;-74
2022/03/06 08:31:39;;;;;;;8.10;7.37;;;;;;;0.77;nan;94738.25;5052833;28;20686;-75
2022/03/06 08:34:06;;;;;;;9.17;8.17;;;;;;;0.77;nan;94728.25;5053180;28;20216;-76
2022/03/06 08:36:34;;;;;;;10.53;8.63;;;;;;;0.78;nan;94732.44;5053370;28;21203;-74
2022/03/06 08:39:01;;;;;;;8.13;7.37;;;;;;;0.77;nan;94718.25;5053761;28;20205;-74
2022/03/06 08:41:29;;;;;;;10.85;7.30;;;;;;;0.84;nan;94714.91;5053041;28;20207;-74
2022/03/06 08:43:56;;;;;;;8.03;7.23;;;;;;;0.79;nan;94721.59;5051824;28;20198;-72
2022/03/06 08:46:23;;;;;;;7.83;7.13;;;;;;;0.83;nan;94719.09;5052714;28;20772;-75
2022/03/06 08:48:50;;;;;;;13.03;9.70;;;;;;;0.89;nan;94719.09;5051675;28;20317;-74
2022/03/06 08:51:17;;;;;;;6.90;6.30;;;;;;;0.89;nan;94723.25;5051436;28;20206;-74
2022/03/06 08:53:43;;;;;;;9.20;6.33;;;;;;;1.00;nan;94726.53;5050744;28;20256;-75
2022/03/06 08:56:10;;;;;;;9.30;8.23;;;;;;;1.06;nan;94741.56;5051263;28;20677;-74
2022/03/06 08:58:38;;;;;;;8.90;5.97;;;;;;;1.04;nan;94723.19;5050784;28;20200;-73
2022/03/06 09:01:05;;;;;;;13.43;8.77;;;;;;;1.07;nan;94718.19;5051419;28;20209;-73
2022/03/06 09:03:33;;;;;;;8.30;7.23;;;;;;;1.09;nan;94721.53;5055975;28;20194;-74
2022/03/06 09:06:00;;;;;;;9.63;8.03;;;;;;;0.98;nan;94713.22;5054099;28;20229;-77
2022/03/06 09:08:27;;;;;;;6.87;6.20;;;;;;;1.06;nan;94726.53;5054733;28;20234;-75
2022/03/06 09:10:54;;;;;;;10.17;6.70;;;;;;;1.04;nan;94718.19;5055913;28;20206;-73
2022/03/06 09:13:20;;;;;;;10.07;7.13;;;;;;;1.03;nan;94712.34;5051998;28;20557;-73
2022/03/06 09:15:49;;;;;;;7.43;6.70;;;;;;;1.10;nan;94712.34;5052429;28;20202;-74
2022/03/06 09:18:16;;;;;;;6.60;6.00;;;;;;;1.20;nan;94732.34;5053727;28;20229;-73
2022/03/06 09:20:43;;;;;;;6.27;5.67;;;;;;;1.10;nan;94723.19;5053357;28;20246;-72
2022/03/06 09:23:10;;;;;;;6.53;4.47;;;;;;;1.02;nan;94739.88;5051578;28;20206;-74
2022/03/06 09:25:37;;;;;;;4.73;4.20;;;;;;;1.06;nan;94725.69;5052544;28;20195;-75
2022/03/06 09:28:05;;;;;;;6.63;6.13;;;;;;;1.27;nan;94736.47;5050449;28;20436;-74
2022/03/06 09:30:32;;;;;;;4.87;4.47;;;;;;;1.14;nan;94729.84;5051121;28;20216;-75
2022/03/06 09:33:01;;;;;;;4.93;4.53;;;;;;;1.12;nan;94735.69;5052131;28;20198;-74
2022/03/06 09:35:28;;;;;;;5.00;4.63;;;;;;;0.98;nan;94710.72;5051958;28;20202;-75
2022/03/06 09:37:55;;;;;;;4.77;4.40;;;;;;;1.21;nan;94734.03;5052161;28;20202;-75
2022/03/06 09:40:22;;;;;;;5.43;4.93;;;;;;;1.14;nan;94747.38;5052271;28;20206;-76
2022/03/06 09:42:49;;;;;;;5.27;4.87;;;;;;;1.18;nan;94736.53;5056434;28;20206;-74
2022/03/06 09:45:16;;;;;;;3.50;3.30;;;;;;;1.10;nan;94727.38;5054402;28;21975;-76
2022/03/06 09:47:45;;;;;;;4.93;4.10;;;;;;;1.13;nan;94740.69;5052491;28;20617;-75
2022/03/06 09:50:15;;;;;;;4.23;3.63;;;;;;;1.13;nan;94738.19;5055736;28;20329;-74
2022/03/06 09:52:42;;;;;;;4.30;4.00;;;;;;;1.12;nan;94755.72;5059006;28;20594;-75
2022/03/06 09:55:09;;;;;;;4.50;4.10;;;;;;;1.15;nan;94724.03;5058952;28;20222;-73
2022/03/06 09:57:37;;;;;;;4.40;4.07;;;;;;;1.17;nan;94729.03;5060165;28;20206;-74
2022/03/06 10:00:06;;;;;;;5.10;4.17;;;;;;;1.22;nan;94730.69;5062155;28;20206;-75
2022/03/06 10:02:33;;;;;;;4.10;3.80;;;;;;;1.27;nan;94751.50;5065364;28;20202;-74
2022/03/06 10:05:00;;;;;;;6.47;3.87;;;;;;;1.31;nan;94737.31;5063955;28;20193;-75
2022/03/06 10:07:28;;;;;;;6.03;5.47;;;;;;;1.18;nan;94746.53;5064948;28;20202;-74
2022/03/06 10:09:58;;;;;;;4.57;4.27;;;;;;;1.22;nan;94740.69;5064067;28;20249;-75
2022/03/06 10:12:27;;;;;;;3.57;3.37;;;;;;;1.17;nan;94749.88;5063546;28;20289;-77
2022/03/06 10:14:56;;;;;;;3.20;3.03;;;;;;;1.04;nan;94728.22;5062685;28;20213;-73
2022/03/06 10:17:25;;;;;;;4.90;4.50;;;;;;;1.12;nan;94756.56;5059923;28;20214;-75
2022/03/06 10:19:54;;;;;;;5.33;4.83;;;;;;;1.17;nan;94749.03;5062132;28;20190;-78
2022/03/06 10:22:23;;;;;;;4.13;3.83;;;;;;;1.14;nan;94764.91;5061850;28;20204;-75
2022/03/06 10:24:53;;;;;;;6.37;4.40;;;;;;;1.20;nan;94744.88;5061589;28;20198;-73
2022/03/06 10:27:45;;;;;;;5.30;4.90;;;;;;;1.26;nan;94759.00;5062098;28;20953;-71
2022/03/06 10:30:27;;;;;;;4.60;4.30;;;;;;;1.32;nan;94759.81;5060758;28;20584;-76
2022/03/06 10:32:55;;;;;;;3.40;2.93;;;;;;;1.29;nan;94751.50;5059416;28;20282;-74
2022/03/06 10:35:32;;;;;;;4.53;4.23;;;;;;;1.37;nan;94752.31;5057541;28;20708;-73
2022/03/06 10:37:59;;;;;;;4.20;4.00;;;;;;;1.28;nan;94745.66;5059143;28;20202;-75
2022/03/06 10:40:39;;;;;;;4.27;3.87;;;;;;;1.41;nan;94728.09;5060133;28;20297;-79
2022/03/06 10:43:18;;;;;;;4.53;3.20;;;;;;;1.34;nan;94735.63;5058837;28;20206;-76
2022/03/06 10:45:46;;;;;;;4.43;4.03;;;;;;;1.31;nan;94738.13;5060818;28;20824;-75
2022/03/06 10:48:12;;;;;;;6.10;4.23;;;;;;;1.29;nan;94733.97;5058625;28;20211;-75
2022/03/06 10:50:40;;;;;;;3.73;3.53;;;;;;;1.31;nan;94728.13;5059684;28;20253;-73
2022/03/06 10:53:25;;;;;;;4.57;4.17;;;;;;;1.37;nan;94737.28;5058490;28;20190;-75
2022/03/06 10:55:54;;;;;;;4.40;4.10;;;;;;;1.39;nan;94730.59;5060187;28;21216;-74
2022/03/06 10:58:21;;;;;;;5.17;3.90;;;;;;;1.31;nan;94722.28;5057955;28;20580;-75
2022/03/06 11:00:49;;;;;;;8.60;4.47;;;;;;;1.36;nan;94738.97;5056958;28;20210;-75
2022/03/06 11:03:16;;;;;;;5.03;4.63;;;;;;;1.42;nan;94739.78;5055578;28;20327;-78
2022/03/06 11:05:45;;;;;;;4.70;3.90;;;;;;;1.49;nan;94736.41;5057804;28;20232;-76
2022/03/06 11:08:13;;;;;;;5.03;4.73;;;;;;;1.31;nan;94734.81;5056417;28;20263;-74
2022/03/06 11:10:42;;;;;;;3.03;2.90;;;;;;;1.09;nan;94710.69;5053780;28;20233;-75
2022/03/06 11:13:12;;;;;;;4.20;3.90;;;;;;;1.17;nan;94727.34;5056149;28;20209;-74
2022/03/06 11:15:39;;;;;;;5.03;4.63;;;;;;;1.18;nan;94735.69;5055888;28;20203;-76
2022/03/06 11:18:06;;;;;;;5.03;4.70;;;;;;;1.26;nan;94742.31;5054931;28;20638;-75
2022/03/06 11:20:35;;;;;;;4.87;4.47;;;;;;;1.28;nan;94750.66;5053546;28;20202;-73
2022/03/06 11:23:14;;;;;;;4.87;4.47;;;;;;;1.26;nan;94749.84;5056064;28;20224;-75
2022/03/06 11:25:52;;;;;;;3.70;3.50;;;;;;;1.27;nan;94750.66;5054406;28;20208;-75
2022/03/06 11:28:32;;;;;;;3.80;3.50;;;;;;;1.19;nan;94747.38;5054558;28;20204;-74
2022/03/06 11:31:00;;;;;;;4.03;3.73;;;;;;;1.06;nan;94744.06;5039572;28;20221;-73
2022/03/06 11:33:27;;;;;;;3.97;3.67;;;;;;;1.05;nan;94734.03;5055819;28;20195;-74
2022/03/06 11:35:55;;;;;;;2.57;2.40;;;;;;;1.08;nan;94744.88;5058501;28;20213;-74
2022/03/06 11:38:38;;;;;;;2.97;2.43;;;;;;;0.98;nan;94740.75;5055355;28;20202;-73
2022/03/06 11:41:10;;;;;;;3.13;3.00;;;;;;;0.74;nan;94720.78;5053405;28;20211;-75
2022/03/06 11:43:47;;;;;;;3.17;2.97;;;;;;;0.94;nan;94731.59;5056688;28;20201;-73
2022/03/06 11:46:19;;;;;;;3.20;3.00;;;;;;;0.80;nan;94735.75;5056074;28;20296;-73
2022/03/06 11:49:07;;;;;;;3.87;2.63;;;;;;;0.80;nan;94746.59;5055228;28;21388;-72
2022/03/06 11:51:39;;;;;;;3.63;3.43;;;;;;;0.87;nan;94739.94;5048999;28;20214;-73
2022/03/06 11:54:07;;;;;;;4.70;3.40;;;;;;;0.76;nan;94731.59;5055891;28;20217;-72
2022/03/06 11:56:52;;;;;;;3.27;2.90;;;;;;;0.64;nan;94740.78;5053522;28;20589;-73
2022/03/06 11:59:44;;;;;;;3.53;3.33;;;;;;;0.70;nan;94729.13;5054716;28;20336;-73
2022/03/06 12:02:22;;;;;;;3.40;3.20;;;;;;;0.65;nan;94731.63;5056380;28;20198;-74
2022/03/06 12:04:57;;;;;;;4.30;4.00;;;;;;;0.75;nan;94729.94;5056375;28;20763;-75
2022/03/06 12:07:26;;;;;;;4.57;4.17;;;;;;;0.77;nan;94733.25;5055568;28;20584;-73
2022/03/06 12:09:54;;;;;;;4.23;3.93;;;;;;;0.79;nan;94732.44;5058206;28;20256;-73